createdAt,value
2019-02-15T00:00:14.488Z,103237.30
2019-02-15T00:02:42.912Z,103236.44
2019-02-15T00:05:11.358Z,103238.73
2019-02-15T00:07:39.781Z,103243.86
2019-02-15T00:10:08.235Z,103242.13
2019-02-15T00:12:36.661Z,103237.11
2019-02-15T00:15:06.558Z,103236.61
2019-02-15T00:17:51.713Z,103236.84
2019-02-15T00:20:21.871Z,103220.67
2019-02-15T00:22:50.286Z,103230.81
2019-02-15T00:25:18.738Z,103232.30
2019-02-15T00:27:47.239Z,103236.51
2019-02-15T00:30:15.694Z,103237.60
2019-02-15T00:32:44.113Z,103234.28
2019-02-15T00:35:12.643Z,103233.61
2019-02-15T00:37:41.062Z,103230.20
2019-02-15T00:40:09.575Z,103232.33
2019-02-15T00:42:38.009Z,103223.69
2019-02-15T00:45:07.384Z,103228.80
2019-02-15T00:47:40.142Z,103230.45
2019-02-15T00:52:51.902Z,103231.88
2019-02-15T00:55:21.990Z,103232.35
2019-02-15T00:57:52.058Z,103229.28
2019-02-15T01:00:38.290Z,103236.63
2019-02-15T01:03:08.366Z,103242.77
2019-02-15T01:05:38.457Z,103232.73
2019-02-15T01:08:17.854Z,103236.85
2019-02-15T01:10:50.373Z,103241.74
2019-02-15T01:13:18.876Z,103230.31
2019-02-15T01:15:47.336Z,103228.74
2019-02-15T01:18:15.759Z,103228.30
2019-02-15T01:20:44.212Z,103235.81
2019-02-15T01:23:12.643Z,103241.37
2019-02-15T01:25:42.732Z,103240.55
2019-02-15T01:28:15.402Z,103242.77
2019-02-15T01:30:48.446Z,103239.77
2019-02-15T01:33:30.836Z,103229.05
2019-02-15T01:36:19.340Z,103238.21
2019-02-15T01:38:52.115Z,103234.83
2019-02-15T01:41:22.210Z,103234.92
2019-02-15T01:44:01.325Z,103230.95
2019-02-15T01:46:31.490Z,103238.97
2019-02-15T01:48:59.913Z,103241.05
2019-02-15T01:51:28.361Z,103236.77
2019-02-15T01:53:56.787Z,103233.61
2019-02-15T01:56:25.234Z,103236.23
2019-02-15T01:58:53.656Z,103232.60
2019-02-15T02:01:28.405Z,103225.53
2019-02-15T02:03:57.313Z,103226.67
2019-02-15T02:06:25.731Z,103225.78
2019-02-15T02:08:54.259Z,103228.43
2019-02-15T02:11:22.688Z,103230.09
2019-02-15T02:13:51.212Z,103229.58
2019-02-15T02:16:19.635Z,103228.55
2019-02-15T02:18:48.095Z,103220.63
2019-02-15T02:21:16.524Z,103222.16
2019-02-15T02:23:44.978Z,103218.61
2019-02-15T02:26:13.396Z,103219.47
2019-02-15T02:28:41.839Z,103222.31
2019-02-15T02:31:10.342Z,103225.13
2019-02-15T02:33:38.804Z,103224.61
2019-02-15T02:36:07.235Z,103222.53
2019-02-15T02:38:35.701Z,103218.64
2019-02-15T02:41:04.185Z,103217.78
2019-02-15T02:43:32.634Z,103221.59
2019-02-15T02:46:01.050Z,103221.72
2019-02-15T02:48:29.500Z,103229.20
2019-02-15T02:50:57.925Z,103224.40
2019-02-15T02:53:26.391Z,103219.30
2019-02-15T02:55:54.817Z,103220.72
2019-02-15T02:58:23.260Z,103228.16
2019-02-15T03:00:51.682Z,103228.89
2019-02-15T03:03:20.159Z,103228.20
2019-02-15T03:05:48.648Z,103223.31
2019-02-15T03:08:17.096Z,103229.63
2019-02-15T03:10:45.524Z,103226.00
2019-02-15T03:13:14.047Z,103227.42
2019-02-15T03:15:42.561Z,103227.47
2019-02-15T03:18:11.034Z,103229.02
2019-02-15T03:20:39.462Z,103223.74
2019-02-15T03:23:07.905Z,103226.68
2019-02-15T03:25:36.344Z,103222.87
2019-02-15T03:28:04.828Z,103224.34
2019-02-15T03:30:33.343Z,103222.65
2019-02-15T03:33:01.758Z,103229.34
2019-02-15T03:35:30.205Z,103223.20
2019-02-15T03:38:00.353Z,103230.89
2019-02-15T03:40:30.522Z,103226.05
2019-02-15T03:42:58.966Z,103225.31
2019-02-15T03:45:27.438Z,103217.88
2019-02-15T03:47:55.867Z,103217.44
2019-02-15T03:50:24.371Z,103220.03
2019-02-15T03:52:52.764Z,103224.14
2019-02-15T03:55:21.222Z,103219.77
2019-02-15T03:57:49.727Z,103223.31
2019-02-15T04:00:18.196Z,103222.72
2019-02-15T04:02:46.615Z,103218.49
2019-02-15T04:05:15.068Z,103222.94
2019-02-15T04:07:43.503Z,103217.97
2019-02-15T04:10:12.025Z,103219.36
2019-02-15T04:12:40.530Z,103218.49
2019-02-15T04:15:09.071Z,103211.13
2019-02-15T04:17:37.508Z,103210.74
2019-02-15T04:20:08.627Z,103204.56
2019-02-15T04:22:37.058Z,103210.44
2019-02-15T04:25:06.360Z,103209.18
2019-02-15T04:27:34.797Z,103205.52
2019-02-15T04:30:03.345Z,103209.45
2019-02-15T04:32:31.792Z,103200.80
2019-02-15T04:35:00.315Z,103208.91
2019-02-15T04:37:28.762Z,103210.30
2019-02-15T04:39:57.194Z,103207.34
2019-02-15T04:42:25.719Z,103207.91
2019-02-15T04:44:54.157Z,103214.20
2019-02-15T04:47:22.609Z,103218.86
2019-02-15T04:49:51.351Z,103217.84
2019-02-15T04:52:19.807Z,103217.45
2019-02-15T04:54:48.224Z,103217.45
2019-02-15T04:57:16.685Z,103218.44
2019-02-15T04:59:45.104Z,103214.27
2019-02-15T05:02:13.563Z,103215.45
2019-02-15T05:04:42.364Z,103213.17
2019-02-15T05:07:10.816Z,103211.39
2019-02-15T05:09:39.230Z,103201.88
2019-02-15T05:12:07.684Z,103206.44
2019-02-15T05:14:36.111Z,103213.99
2019-02-15T05:17:04.569Z,103205.14
2019-02-15T05:19:32.980Z,103210.97
2019-02-15T05:22:01.440Z,103212.06
2019-02-15T05:24:29.856Z,103206.47
2019-02-15T05:26:58.323Z,103204.38
2019-02-15T05:29:26.745Z,103202.05
2019-02-15T05:31:55.198Z,103198.36
2019-02-15T05:34:23.611Z,103197.61
2019-02-15T05:36:52.080Z,103197.47
2019-02-15T05:39:20.487Z,103192.83
2019-02-15T05:41:48.939Z,103196.95
2019-02-15T05:44:17.367Z,103190.22
2019-02-15T05:46:45.814Z,103187.94
2019-02-15T05:49:14.246Z,103196.00
2019-02-15T05:51:42.691Z,103197.81
2019-02-15T05:54:11.137Z,103197.86
2019-02-15T05:56:39.641Z,103201.20
2019-02-15T05:59:08.061Z,103205.41
2019-02-15T06:01:36.686Z,103208.45
2019-02-15T06:04:05.186Z,103211.20
2019-02-15T06:06:33.652Z,103207.26
2019-02-15T06:09:02.069Z,103216.83
2019-02-15T06:11:30.484Z,103219.27
2019-02-15T06:13:58.934Z,103214.41
2019-02-15T06:16:27.363Z,103210.80
2019-02-15T06:18:55.804Z,103213.29
2019-02-15T06:21:24.231Z,103213.14
2019-02-15T06:23:52.680Z,103217.33
2019-02-15T06:26:21.092Z,103208.05
2019-02-15T06:28:49.550Z,103212.92
2019-02-15T06:31:18.056Z,103212.92
2019-02-15T06:33:46.491Z,103208.91
2019-02-15T06:36:14.912Z,103218.27
2019-02-15T06:38:43.365Z,103221.30
2019-02-15T06:41:12.537Z,103218.16
2019-02-15T06:43:41.118Z,103223.90
2019-02-15T06:46:09.549Z,103218.91
2019-02-15T06:48:38.006Z,103220.11
2019-02-15T06:51:06.432Z,103226.22
2019-02-15T06:53:34.882Z,103225.53
2019-02-15T06:56:03.301Z,103219.90
2019-02-15T06:58:31.915Z,103223.58
2019-02-15T07:01:07.777Z,103217.69
2019-02-15T07:03:40.621Z,103224.70
2019-02-15T07:06:09.051Z,103215.66
2019-02-15T07:08:37.501Z,103221.94
2019-02-15T07:11:05.931Z,103220.90
2019-02-15T07:13:34.385Z,103224.30
2019-02-15T07:16:02.811Z,103231.55
2019-02-15T07:18:31.268Z,103227.53
2019-02-15T07:20:59.681Z,103238.31
2019-02-15T07:23:28.112Z,103229.73
2019-02-15T07:25:56.572Z,103242.88
2019-02-15T07:28:25.005Z,103244.77
2019-02-15T07:30:53.460Z,103232.88
2019-02-15T07:33:21.891Z,103242.02
2019-02-15T07:35:50.342Z,103246.20
2019-02-15T07:38:18.758Z,103241.88
2019-02-15T07:40:47.205Z,103246.09
2019-02-15T07:43:15.636Z,103239.66
2019-02-15T07:45:44.086Z,103236.77
2019-02-15T07:48:12.515Z,103241.38
2019-02-15T07:50:40.966Z,103241.02
2019-02-15T07:53:09.409Z,103242.75
2019-02-15T07:55:37.850Z,103235.73
2019-02-15T07:58:06.278Z,103229.14
2019-02-15T08:00:34.744Z,103235.09
2019-02-15T08:03:03.174Z,103233.89
2019-02-15T08:05:31.635Z,103237.73
2019-02-15T08:08:00.043Z,103232.35
2019-02-15T08:10:28.499Z,103232.50
2019-02-15T08:12:56.928Z,103231.44
2019-02-15T08:15:25.371Z,103226.87
2019-02-15T08:17:53.793Z,103225.84
2019-02-15T08:20:22.241Z,103226.07
2019-02-15T08:22:50.656Z,103229.78
2019-02-15T08:25:19.110Z,103225.36
2019-02-15T08:27:47.533Z,103226.20
2019-02-15T08:30:15.976Z,103226.33
2019-02-15T08:32:44.403Z,103228.56
2019-02-15T08:35:12.820Z,103219.80
2019-02-15T08:37:41.266Z,103218.12
2019-02-15T08:40:11.217Z,103211.66
2019-02-15T08:42:39.659Z,103208.84
2019-02-15T08:45:10.928Z,103213.92
2019-02-15T08:47:39.882Z,103215.11
2019-02-15T08:50:10.979Z,103215.28
2019-02-15T08:52:39.498Z,103207.30
2019-02-15T08:55:10.168Z,103216.59
2019-02-15T08:57:38.610Z,103219.34
2019-02-15T09:00:09.841Z,103213.50
2019-02-15T09:02:38.363Z,103215.88
2019-02-15T09:05:09.327Z,103212.91
2019-02-15T09:07:37.828Z,103227.58
2019-02-15T09:10:11.788Z,103220.05
2019-02-15T09:12:40.239Z,103228.71
2019-02-15T09:15:11.669Z,103220.61
2019-02-15T09:17:40.213Z,103214.13
2019-02-15T09:20:11.062Z,103214.13
2019-02-15T09:22:39.525Z,103211.39
2019-02-15T09:25:10.011Z,103212.22
2019-02-15T09:27:40.083Z,103209.00
2019-02-15T09:30:11.682Z,103205.31
2019-02-15T09:32:40.137Z,103188.69
2019-02-15T09:35:11.095Z,103199.27
2019-02-15T09:37:39.686Z,103199.27
2019-02-15T09:40:09.750Z,103214.19
2019-02-15T09:42:38.197Z,103214.19
2019-02-15T09:45:10.264Z,103203.33
2019-02-15T09:47:38.716Z,103201.38
2019-02-15T09:50:10.190Z,103204.27
2019-02-15T09:52:39.557Z,103204.27
2019-02-15T09:55:08.091Z,103198.30
2019-02-15T09:57:36.598Z,103197.52
2019-02-15T10:00:08.107Z,103196.28
2019-02-15T10:02:36.514Z,103196.28
2019-02-15T10:05:06.893Z,103196.50
2019-02-15T10:07:35.313Z,103192.99
2019-02-15T10:10:04.303Z,103183.58
2019-02-15T10:12:32.718Z,103189.36
2019-02-15T10:15:01.177Z,103192.84
2019-02-15T10:17:29.593Z,103190.29
2019-02-15T10:19:58.042Z,103190.55
2019-02-15T10:22:26.455Z,103183.55
2019-02-15T10:24:56.862Z,103177.52
2019-02-15T10:27:29.556Z,103182.85
2019-02-15T10:29:59.298Z,103191.98
2019-02-15T10:32:29.541Z,103188.30
2019-02-15T10:34:57.986Z,103188.66
2019-02-15T10:37:30.490Z,103185.43
2019-02-15T10:39:59.100Z,103182.19
2019-02-15T10:42:29.502Z,103182.42
2019-02-15T10:45:00.851Z,103173.11
2019-02-15T10:47:30.878Z,103163.19
2019-02-15T10:50:00.306Z,103156.34
2019-02-15T10:52:30.616Z,103149.98
2019-02-15T10:55:00.799Z,103154.02
2019-02-15T10:57:34.702Z,103154.83
2019-02-15T11:00:14.491Z,103150.20
2019-02-15T11:02:43.641Z,103144.09
2019-02-15T11:05:14.669Z,103143.30
2019-02-15T11:07:46.268Z,103139.61
2019-02-15T11:10:18.818Z,103142.75
2019-02-15T11:12:48.950Z,103142.39
2019-02-15T11:15:18.954Z,103135.86
2019-02-15T11:20:39.376Z,103131.08
2019-02-15T11:23:09.925Z,103121.30
2019-02-15T11:25:39.921Z,103125.01
2019-02-15T11:28:10.847Z,103120.84
2019-02-15T11:30:40.780Z,103117.05
2019-02-15T11:33:11.087Z,103117.78
2019-02-15T11:35:39.811Z,103119.16
2019-02-15T11:38:11.329Z,103111.97
2019-02-15T11:40:40.811Z,103108.40
2019-02-15T11:43:10.186Z,103102.72
2019-02-15T11:45:39.471Z,103102.62
2019-02-15T11:48:10.516Z,103095.58
2019-02-15T11:50:43.746Z,103092.84
2019-02-15T11:53:12.927Z,103097.51
2019-02-15T11:55:42.593Z,103093.12
2019-02-15T11:58:13.534Z,103086.64
2019-02-15T12:00:41.983Z,103084.69
2019-02-15T12:03:13.785Z,103088.42
2019-02-15T12:05:43.318Z,103085.48
2019-02-15T12:08:14.105Z,103083.87
2019-02-15T12:10:45.090Z,103076.46
2019-02-15T12:13:24.150Z,103069.75
2019-02-15T12:15:55.982Z,103064.28
2019-02-15T12:18:24.564Z,103064.37
2019-02-15T12:20:55.685Z,103061.64
2019-02-15T12:23:24.597Z,103056.89
2019-02-15T12:25:55.014Z,103057.14
2019-02-15T12:28:24.331Z,103048.88
2019-02-15T12:30:54.398Z,103046.21
2019-02-15T12:33:24.332Z,103045.02
2019-02-15T12:35:55.256Z,103044.27
2019-02-15T12:38:24.042Z,103044.30
2019-02-15T12:40:55.043Z,103038.75
2019-02-15T12:43:25.124Z,103037.03
2019-02-15T12:45:53.784Z,103036.92
2019-02-15T12:48:23.264Z,103032.53
2019-02-15T12:50:58.115Z,103028.45
2019-02-15T12:53:27.494Z,103015.36
2019-02-15T12:55:56.225Z,103018.61
2019-02-15T12:58:25.672Z,103015.56
2019-02-15T13:00:55.688Z,103012.96
2019-02-15T13:03:26.035Z,103011.97
2019-02-15T13:06:08.381Z,103010.22
2019-02-15T13:08:36.825Z,103003.05
2019-02-15T13:11:10.358Z,103003.99
2019-02-15T13:13:41.254Z,103001.81
2019-02-15T13:16:12.061Z,103000.48
2019-02-15T13:18:40.983Z,102991.95
2019-02-15T13:21:14.168Z,102990.62
2019-02-15T13:23:48.859Z,102991.47
2019-02-15T13:26:20.130Z,102985.47
2019-02-15T13:28:51.330Z,102993.70
2019-02-15T13:31:23.156Z,102980.05
2019-02-15T13:33:57.061Z,102981.89
2019-02-15T13:36:25.783Z,102973.84
2019-02-15T13:38:55.973Z,102971.78
2019-02-15T13:41:28.414Z,102976.42
2019-02-15T13:43:58.353Z,102969.77
2019-02-15T13:46:33.173Z,102961.39
2019-02-15T13:49:01.459Z,102952.47
2019-02-15T13:51:34.650Z,102949.73
2019-02-15T13:54:03.950Z,102948.90
2019-02-15T13:56:36.726Z,102947.86
2019-02-15T13:59:07.584Z,102949.41
2019-02-15T14:01:38.209Z,102943.06
2019-02-15T14:04:07.635Z,102944.44
2019-02-15T14:06:35.900Z,102942.02
2019-02-15T14:09:05.888Z,102937.19
2019-02-15T14:11:36.294Z,102939.25
2019-02-15T14:14:07.302Z,102932.72
2019-02-15T14:16:41.368Z,102939.37
2019-02-15T14:19:11.463Z,102937.49
2019-02-15T14:21:44.626Z,102934.09
2019-02-15T14:24:13.812Z,102930.64
2019-02-15T14:26:44.938Z,102926.55
2019-02-15T14:29:15.202Z,102926.22
2019-02-15T14:31:47.383Z,102925.54
2019-02-15T14:34:21.342Z,102923.28
2019-02-15T14:36:52.957Z,102920.53
2019-02-15T14:39:21.537Z,102922.73
2019-02-15T14:41:53.436Z,102918.10
2019-02-15T14:44:23.472Z,102911.63
2019-02-15T14:46:54.629Z,102917.45
2019-02-15T14:49:25.648Z,102914.52
2019-02-15T14:51:56.883Z,102910.58
2019-02-15T14:54:28.130Z,102906.59
2019-02-15T14:56:57.016Z,102902.64
2019-02-15T14:59:26.392Z,102895.58
2019-02-15T15:01:58.198Z,102896.20
2019-02-15T15:04:32.260Z,102897.06
2019-02-15T15:07:02.730Z,102895.30
2019-02-15T15:09:35.437Z,102885.84
2019-02-15T15:12:06.794Z,102887.91
2019-02-15T15:14:37.021Z,102890.94
2019-02-15T15:17:09.734Z,102890.21
2019-02-15T15:19:42.227Z,102890.17
2019-02-15T15:22:16.293Z,102887.72
2019-02-15T15:24:46.739Z,102880.83
2019-02-15T15:27:17.745Z,102879.58
2019-02-15T15:29:46.170Z,102877.30
2019-02-15T15:32:16.159Z,102874.88
2019-02-15T15:34:46.565Z,102870.98
2019-02-15T15:37:20.205Z,102863.73
2019-02-15T15:39:51.164Z,102855.33
2019-02-15T15:42:23.441Z,102850.31
2019-02-15T15:44:51.872Z,102856.06
2019-02-15T15:47:21.639Z,102847.32
2019-02-15T15:49:50.057Z,102842.10
2019-02-15T15:52:19.471Z,102843.89
2019-02-15T15:54:48.274Z,102840.91
2019-02-15T15:57:18.754Z,102844.16
2019-02-15T15:59:47.351Z,102845.54
2019-02-15T16:02:18.558Z,102841.12
2019-02-15T16:04:49.307Z,102839.87
2019-02-15T16:07:21.361Z,102839.20
2019-02-15T16:09:52.433Z,102839.58
2019-02-15T16:12:23.695Z,102840.03
2019-02-15T16:14:53.340Z,102836.02
2019-02-15T16:17:23.547Z,102834.47
2019-02-15T16:19:55.107Z,102834.95
2019-02-15T16:22:31.612Z,102836.50
2019-02-15T16:25:02.815Z,102827.19
2019-02-15T16:27:33.862Z,102829.71
2019-02-15T16:30:05.254Z,102826.80
2019-02-15T16:32:36.324Z,102827.72
2019-02-15T16:35:10.207Z,102828.73
2019-02-15T16:37:40.084Z,102827.72
2019-02-15T16:40:12.142Z,102830.05
2019-02-15T16:42:45.544Z,102827.20
2019-02-15T16:45:19.182Z,102827.48
2019-02-15T16:47:51.242Z,102824.84
2019-02-15T16:50:21.107Z,102820.55
2019-02-15T16:52:54.405Z,102823.13
2019-02-15T16:55:27.101Z,102817.23
2019-02-15T16:58:00.738Z,102824.64
2019-02-15T17:00:30.612Z,102829.34
2019-02-15T17:02:59.771Z,102827.64
2019-02-15T17:05:29.896Z,102833.41
2019-02-15T17:08:01.956Z,102825.34
2019-02-15T17:10:31.354Z,102827.51
2019-02-15T17:13:01.434Z,102831.59
2019-02-15T17:15:34.825Z,102829.78
2019-02-15T17:18:07.079Z,102827.36
2019-02-15T17:20:38.693Z,102830.47
2019-02-15T17:23:09.026Z,102830.73
2019-02-15T17:25:41.304Z,102825.59
2019-02-15T17:28:13.311Z,102825.73
2019-02-15T17:30:43.859Z,102821.69
2019-02-15T17:33:12.620Z,102823.29
2019-02-15T17:35:42.036Z,102817.52
2019-02-15T17:38:13.155Z,102826.37
2019-02-15T17:40:44.093Z,102822.31
2019-02-15T17:43:14.906Z,102824.42
2019-02-15T17:45:44.853Z,102819.59
2019-02-15T17:48:14.209Z,102819.81
2019-02-15T17:50:44.834Z,102824.70
2019-02-15T17:53:16.543Z,102817.18
2019-02-15T17:55:44.976Z,102807.31
2019-02-15T17:58:13.910Z,102816.09
2019-02-15T18:00:45.256Z,102812.00
2019-02-15T18:03:21.748Z,102807.58
2019-02-15T18:05:51.359Z,102807.14
2019-02-15T18:08:23.540Z,102807.14
2019-02-15T18:10:51.997Z,102806.11
2019-02-15T18:13:21.807Z,102813.96
2019-02-15T18:15:53.771Z,102813.96
2019-02-15T18:18:27.134Z,102811.48
2019-02-15T18:20:57.622Z,102810.00
2019-02-15T18:23:29.289Z,102796.42
2019-02-15T18:26:02.278Z,102796.42
2019-02-15T18:28:32.236Z,102800.88
2019-02-15T18:31:05.497Z,102800.88
2019-02-15T18:33:37.001Z,102791.75
2019-02-15T18:36:10.567Z,102791.75
2019-02-15T18:38:41.059Z,102792.27
2019-02-15T18:41:13.782Z,102794.05
2019-02-15T18:43:41.953Z,102787.80
2019-02-15T18:46:10.400Z,102787.80
2019-02-15T18:48:43.077Z,102788.14
2019-02-15T18:51:12.493Z,102790.97
2019-02-15T18:53:42.901Z,102790.97
2019-02-15T18:56:13.282Z,102785.42
2019-02-15T18:58:41.702Z,102785.42
2019-02-15T19:01:13.273Z,102784.00
2019-02-15T19:03:42.039Z,102784.00
2019-02-15T19:06:14.000Z,102781.00
2019-02-15T19:08:44.060Z,102779.18
2019-02-15T19:11:18.304Z,102779.18
2019-02-15T19:13:48.227Z,102775.61
2019-02-15T19:16:18.546Z,102777.34
2019-02-15T19:18:48.271Z,102777.34
2019-02-15T19:21:18.424Z,102772.43
2019-02-15T19:23:50.412Z,102776.20
2019-02-15T19:29:11.370Z,102772.15
2019-02-15T19:31:41.051Z,102776.62
2019-02-15T19:34:20.728Z,102773.42
2019-02-15T19:36:51.218Z,102757.53
2019-02-15T19:39:20.178Z,102757.53
2019-02-15T19:41:51.405Z,102758.51
2019-02-15T19:44:19.824Z,102760.18
2019-02-15T19:46:50.099Z,102757.20
2019-02-15T19:49:19.361Z,102756.34
2019-02-15T19:51:49.386Z,102747.47
2019-02-15T19:54:17.793Z,102748.66
2019-02-15T19:56:48.261Z,102740.31
2019-02-15T19:59:18.558Z,102737.86
2019-02-15T20:01:48.166Z,102735.51
2019-02-15T20:04:17.123Z,102730.03
2019-02-15T20:06:48.205Z,102735.63
2019-02-15T20:09:16.831Z,102731.58
2019-02-15T20:11:45.244Z,102729.52
2019-02-15T20:14:15.912Z,102728.98
2019-02-15T20:16:46.740Z,102729.89
2019-02-15T20:19:17.206Z,102721.44
2019-02-15T20:21:45.616Z,102721.96
2019-02-15T20:24:15.354Z,102718.56
2019-02-15T20:26:43.780Z,102732.19
2019-02-15T20:29:18.532Z,102720.17
2019-02-15T20:31:49.497Z,102718.36
2019-02-15T20:34:19.869Z,102722.05
2019-02-15T20:36:50.008Z,102711.22
2019-02-15T20:39:23.333Z,102713.81
2019-02-15T20:42:02.405Z,102719.22
2019-02-15T20:44:32.870Z,102712.44
2019-02-15T20:47:03.915Z,102710.88
2019-02-15T20:49:37.007Z,102709.91
2019-02-15T20:52:08.066Z,102711.14
2019-02-15T20:54:41.147Z,102705.67
2019-02-15T20:57:10.600Z,102703.99
2019-02-15T20:59:40.245Z,102700.84
2019-02-15T21:02:14.339Z,102708.59
2019-02-15T21:04:43.508Z,102710.59
2019-02-15T21:07:12.307Z,102709.10
2019-02-15T21:09:43.325Z,102707.41
2019-02-15T21:12:13.323Z,102698.80
2019-02-15T21:14:42.042Z,102698.65
2019-02-15T21:17:13.404Z,102694.35
2019-02-15T21:19:43.816Z,102697.03
2019-02-15T21:22:14.356Z,102690.30
2019-02-15T21:24:44.501Z,102685.00
2019-02-15T21:27:14.879Z,102682.31
2019-02-15T21:29:45.181Z,102679.74
2019-02-15T21:32:17.158Z,102682.89
2019-02-15T21:34:45.783Z,102680.30
2019-02-15T21:37:15.231Z,102670.23
2019-02-15T21:39:43.680Z,102670.66
2019-02-15T21:42:16.296Z,102669.88
2019-02-15T21:44:45.978Z,102672.31
2019-02-15T21:47:16.367Z,102664.36
2019-02-15T21:49:51.514Z,102667.70
2019-02-15T21:52:21.941Z,102658.53
2019-02-15T21:54:50.617Z,102650.91
2019-02-15T21:57:19.041Z,102646.38
2019-02-15T21:59:52.109Z,102653.34
2019-02-15T22:02:22.082Z,102653.27
2019-02-15T22:04:51.456Z,102649.51
2019-02-15T22:07:23.705Z,102643.50
2019-02-15T22:09:53.081Z,102638.17
2019-02-15T22:12:26.368Z,102638.17
2019-02-15T22:14:59.144Z,102638.83
2019-02-15T22:17:31.633Z,102637.52
2019-02-15T22:20:00.428Z,102641.64
2019-02-15T22:22:29.781Z,102638.70
2019-02-15T22:24:58.226Z,102634.55
2019-02-15T22:27:29.643Z,102628.89
2019-02-15T22:29:58.622Z,102627.38
2019-02-15T22:32:29.952Z,102628.92
2019-02-15T22:35:02.068Z,102629.78
2019-02-15T22:37:31.974Z,102629.52
2019-02-15T22:40:05.325Z,102626.36
2019-02-15T22:42:36.876Z,102625.58
2019-02-15T22:45:08.958Z,102632.12
2019-02-15T22:47:41.010Z,102621.50
2019-02-15T22:50:15.434Z,102624.25
2019-02-15T22:52:44.254Z,102623.02
2019-02-15T22:55:17.687Z,102625.52
2019-02-15T22:57:46.111Z,102623.21
2019-02-15T23:00:23.596Z,102624.17
2019-02-15T23:02:52.090Z,102622.23
2019-02-15T23:05:20.598Z,102620.80
2019-02-15T23:07:49.016Z,102624.91
2019-02-15T23:10:17.468Z,102616.81
2019-02-15T23:12:45.891Z,102614.30
2019-02-15T23:15:14.418Z,102617.28
2019-02-15T23:17:42.908Z,102614.28
2019-02-15T23:20:11.429Z,102610.99
2019-02-15T23:22:39.839Z,102616.95
2019-02-15T23:25:08.450Z,102610.04
2019-02-15T23:27:36.871Z,102607.70
2019-02-15T23:30:07.474Z,102609.50
2019-02-15T23:32:35.901Z,102602.86
2019-02-15T23:35:04.982Z,102606.02
2019-02-15T23:37:33.401Z,102608.84
2019-02-15T23:40:01.846Z,102604.38
2019-02-15T23:42:30.265Z,102604.80
2019-02-15T23:44:58.714Z,102602.27
2019-02-15T23:47:27.132Z,102599.61
2019-02-15T23:49:55.557Z,102591.92
2019-02-15T23:52:23.999Z,102588.86
2019-02-15T23:54:52.410Z,102594.31
2019-02-15T23:57:20.862Z,102588.36
2019-02-15T23:59:49.273Z,102585.05
